Jack Henry And Associates Inc (JKHY) Latest Bloomsberg Price


Mffais Ranking #643 Overall / #8 Industry
Industry: Consumer Finance

Number of Companies: 305 (Ranking #507 Overall/#12 Industry)
Inflow: $ 131,366 (K) (Ranking #811 Overall/#14 Industry)
Outflow: $ -127,146 (K)
Mffais Flow: $ 4,220 (K) (Ranking #643 Overall/#8 Industry)


Receive a FREE weekly executive review of stocks moving into the top 10, taking the top industy spot or moving up within their industry. Sent directly to your Inbox every Saturday. Sign up today and get last week's review immediately sent to you.

We value and respect your privacy. Please read our Terms and Conditions which states our firm commitment to your privacy. Your email address will not be shared with a third party, nor will it be sold or used for purposes other than subscription for the weekly review.

Owner CPOR Shares Action Qty Chg Invested (K) Total Current Value (K)
American Capital Management Inc 2016-09-30 380,673 New Holding 380,673 $ 33,700 $ 33,700
American International Group Inc 2016-09-30 151,199 New Holding 151,199 $ 13,385 $ 13,385
Mackenzie Financial Corp 2016-09-30 480,625 Added More 123,000 $ 10,889 $ 42,549
Westpac Banking Corp 2016-09-30 76,700 New Holding 76,700 $ 6,790 $ 6,790
Copeland Capital Management Llc 2016-09-30 463,168 Added More 73,549 $ 6,511 $ 41,004
First Quadrant L P Ca 2016-09-30 68,082 Added More 67,938 $ 6,014 $ 6,027
Ahl Partners Llp 2016-09-30 91,619 Added More 58,652 $ 5,192 $ 8,111
Robeco Institutional Asset Management B V 2016-09-30 901,858 Added More 43,202 $ 3,824 $ 79,841
Employees Retirement System Of Texas 2016-09-30 41,000 New Holding 41,000 $ 3,629 $ 3,629
Congress Asset Management Co Ma 2016-09-30 540,606 Added More 35,823 $ 3,171 $ 47,859
Cwm Llc 2016-09-30 191,284 Added More 31,099 $ 2,753 $ 16,934
Airain Ltd 2016-09-30 28,866 New Holding 28,866 $ 2,555 $ 2,555
Hermes Investment Management Ltd 2016-09-30 352,230 Added More 23,843 $ 2,110 $ 31,182
Omers Administration Corp 2016-09-30 86,300 Added More 23,400 $ 2,071 $ 7,640
Eulav Asset Management 2016-09-30 67,700 Added More 21,500 $ 1,903 $ 5,993
Landscape Capital Management L L C 2016-09-30 31,984 Added More 16,189 $ 1,433 $ 2,831
Jane Street Group Llc 2016-09-30 15,973 New Holding 15,973 $ 1,414 $ 1,414
Sterling Global Strategies Llc 2016-09-30 15,313 New Holding 15,313 $ 1,355 $ 1,355
Us Bancorp De 2016-09-30 241,198 Added More 14,637 $ 1,295 $ 21,353
Rhumbline Advisers 2016-09-30 184,030 Added More 12,162 $ 1,076 $ 16,292
Gotham Asset Management Llc 2016-09-30 11,874 New Holding 11,874 $ 1,051 $ 1,051
Kcg Holdings Inc 2016-09-30 14,848 Added More 11,861 $ 1,050 $ 1,314
Raymond James Financial Services Advisors Inc 2016-09-30 17,505 Added More 11,823 $ 1,046 $ 1,549
United Capital Financial Advisers Llc 2016-09-30 96,047 Added More 10,957 $ 970 $ 8,503
Raymond James Associates 2016-09-30 130,563 Added More 10,934 $ 967 $ 11,558
Aperio Group Llc 2016-09-30 65,862 Added More 10,689 $ 946 $ 5,830
Cadence Capital Management Llc 2016-09-30 36,996 Added More 10,486 $ 928 $ 3,275
Gwm Advisors Llc 2016-09-30 53,263 Added More 8,626 $ 763 $ 4,715
Northern Trust Corp 2016-09-30 683,617 Added More 8,537 $ 755 $ 60,520
Cubist Systematic Strategies Llc 2016-09-30 11,674 Added More 7,484 $ 662 $ 1,033
Aviva Plc 2016-09-30 81,328 Added More 7,378 $ 653 $ 7,199
Synovus Financial Corp 2016-09-30 7,089 New Holding 7,089 $ 627 $ 627
Trexquant Investment Lp 2016-09-30 6,700 New Holding 6,700 $ 593 $ 593
Ellington Management Group Llc 2016-09-30 6,400 New Holding 6,400 $ 566 $ 566
Boston Financial Mangement Llc 2016-09-30 93,506 Added More 6,290 $ 556 $ 8,278
Dynamic Technology Lab Private Ltd 2016-09-30 5,872 New Holding 5,872 $ 519 $ 519
Verition Fund Management Llc 2016-09-30 5,846 New Holding 5,846 $ 517 $ 517
Private Advisor Group Llc 2016-09-30 7,527 Added More 3,774 $ 334 $ 666
Cutler Group Lp 2016-09-30 3,979 Added More 3,657 $ 323 $ 352
Dearborn Partners Llc 2016-09-30 190,277 Added More 3,418 $ 302 $ 16,845
Genesee Valley Trust Co 2016-09-30 3,240 New Holding 3,240 $ 286 $ 286
Gideon Capital Advisors Inc 2016-09-30 3,093 New Holding 3,093 $ 273 $ 273
Commerzbank Aktiengesellschaft Fi 2016-09-30 3,073 New Holding 3,073 $ 272 $ 272
Campbell Co Investment Adviser Llc 2016-09-30 2,800 New Holding 2,800 $ 247 $ 247
Bath Savings Trust Co 2016-09-30 51,820 Added More 2,730 $ 241 $ 4,587
Hightower Advisors Llc 2016-09-30 2,698 New Holding 2,698 $ 238 $ 238
Atria Investments Llc 2016-09-30 2,554 New Holding 2,554 $ 226 $ 226
Stratos Wealth Partners Ltd 2016-09-30 2,540 New Holding 2,540 $ 224 $ 224
Nichols Pratt Advisers Llp Ma 2016-09-30 2,409 New Holding 2,409 $ 213 $ 213
Td Asset Management Inc 2016-09-30 67,244 Added More 2,400 $ 212 $ 5,953
Signalpoint Asset Management Llc 2016-09-30 285,805 Added More 2,277 $ 201 $ 25,302
Commonwealth Bank Of Australia 2016-09-30 140,271 Added More 2,165 $ 191 $ 12,418
Neumeier Poma Investment Counsel Llc 2016-09-30 272,875 Added More 1,865 $ 165 $ 24,157
Oppenheimer Co Inc 2016-09-30 35,122 Added More 1,760 $ 155 $ 3,109
Colony Group Llc 2016-09-30 20,344 Added More 1,633 $ 144 $ 1,801
Profund Advisors Llc 2016-09-30 11,238 Added More 1,573 $ 139 $ 994
Cambridge Investment Research Advisors Inc 2016-09-30 9,121 Added More 1,462 $ 129 $ 807
California State Teachers Retirement System 2016-09-30 167,962 Added More 1,400 $ 123 $ 14,869
Invictus Rg 2016-09-30 3,232 Added More 1,380 $ 122 $ 286
Wealth Enhancement Advisory Services Llc 2016-09-30 15,528 Added More 1,282 $ 113 $ 1,374
World Asset Management Inc 2016-09-30 5,124 Added More 1,272 $ 112 $ 453
Rothschild Asset Management Inc 2016-09-30 6,383 Added More 1,235 $ 109 $ 565
Fuller Thaler Asset Management Inc 2016-09-30 1,590 Added More 1,190 $ 105 $ 140
Blair William Co Il 2016-09-30 7,485 Added More 1,162 $ 102 $ 662
Bb T Securities Llc 2016-09-30 13,330 Added More 1,101 $ 97 $ 1,180
Thrivent Financial For Lutherans 2016-09-30 12,320 Added More 1,100 $ 97 $ 1,090
Legal General Group Plc 2016-09-30 11,987 Added More 1,081 $ 95 $ 1,061
Comerica Bank 2016-09-30 55,624 Added More 957 $ 84 $ 4,924
Bbva Compass Bancshares Inc 2016-09-30 18,873 Added More 926 $ 81 $ 1,670
Creative Planning 2016-09-30 6,601 Added More 921 $ 81 $ 584
Tlp Group Llc 2016-09-30 833 New Holding 833 $ 73 $ 73
Donald L Hagan Llc 2016-09-30 9,862 Added More 831 $ 73 $ 873
Loring Wolcott Coolidge Fiduciary Advisors Llp Ma 2016-09-30 213,823 Added More 737 $ 65 $ 18,929
Pacer Advisors Inc 2016-09-30 8,829 Added More 723 $ 64 $ 781
Tower Research Capital Llc Trc 2016-09-30 4,185 Added More 721 $ 63 $ 370
Prudential Plc 2016-09-30 6,300 Added More 700 $ 61 $ 557
Plante Moran Financial Advisors Llc 2016-09-30 567 New Holding 567 $ 50 $ 50
Oregon Public Employees Retirement Fund 2016-09-30 27,546 Added More 544 $ 48 $ 2,438
Mutual Of America Capital Management Llc 2016-09-30 59,559 Added More 526 $ 46 $ 5,272
Formidable Asset Management Llc 2016-09-30 8,373 Added More 515 $ 45 $ 741
Bessemer Group Inc 2016-09-30 155,906 Added More 494 $ 43 $ 13,802
Ladenburg Thalmann Financial Services Inc 2016-09-30 3,403 Added More 488 $ 43 $ 301
Wrapmanager Inc 2016-09-30 2,968 Added More 481 $ 42 $ 262
Penobscot Investment Management Company Inc 2016-09-30 6,126 Added More 460 $ 40 $ 542
Kayne Anderson Rudnick Investment Management Llc 2016-09-30 1,860,501 Added More 455 $ 40 $ 164,710
United Services Automobile Association 2016-09-30 85,698 Added More 430 $ 38 $ 7,586
Boston Advisors Llc 2016-09-30 27,284 Added More 429 $ 37 $ 2,415
Hanseatic Management Services Inc 2016-09-30 26,999 Added More 427 $ 37 $ 2,390
Nomura Asset Management Co Ltd 2016-09-30 14,011 Added More 394 $ 34 $ 1,240
Msi Financial Services Inc 2016-09-30 1,546 Added More 378 $ 33 $ 136
Mason Street Advisors Llc 2016-09-30 36,338 Added More 364 $ 32 $ 3,217
Simmons Bank 2016-09-30 1,032,531 Added More 361 $ 31 $ 91,409
Argentus Capital Management Llc 2016-09-30 3,508 Added More 290 $ 25 $ 310
Cibc World Markets Inc 2016-09-30 6,042 Added More 276 $ 24 $ 534
Hl Financial Services Llc 2016-09-30 18,598 Added More 222 $ 19 $ 1,646
State Of Alaska Department Of Revenue 2016-09-30 3,943 Added More 199 $ 17 $ 349
Investors Capital Advisory Services 2016-06-30 4,320 Added More 145 $ 12 $ 377
Burney Co 2016-09-30 29,720 Added More 134 $ 11 $ 2,631
Ls Investment Advisors Llc 2016-09-30 5,056 Added More 119 $ 10 $ 447
Cantab Capital Partners Llp 2016-09-30 13,214 Added More 109 $ 9 $ 1,169
Smith Moore Co 2016-09-30 3,592 Added More 103 $ 9 $ 318
Ifp Advisors Inc 2016-09-30 769 Added More 90 $ 7 $ 68
First Citizens Bank Trust Co 2016-09-30 5,425 Added More 73 $ 6 $ 480
Pnc Financial Services Group Inc 2016-09-30 9,767 Added More 69 $ 6 $ 864
Benjamin F Edwards Company Inc 2016-09-30 6,953 Added More 68 $ 6 $ 615
Whittier Trust Co 2016-09-30 27,598 Added More 55 $ 4 $ 2,443
Bokf Na 2016-09-30 6,561 Added More 49 $ 4 $ 580
Whittier Trust Co Of Nevada Inc 2016-09-30 515 Added More 46 $ 4 $ 45
Trust Co 2016-09-30 12,434 Added More 42 $ 3 $ 1,100
Duncker Streett Co Inc 2016-09-30 342 Added More 42 $ 3 $ 30
Harel Insurance Investments Financial Services Ltd 2016-09-30 126 Added More 40 $ 3 $ 11
Bkd Wealth Advisors Llc 2016-09-30 172,380 Added More 37 $ 3 $ 15,260
Northwestern Mutual Wealth Management Co 2016-09-30 257 Added More 34 $ 3 $ 22
Intrust Bank Na 2016-09-30 3,273 Added More 29 $ 2 $ 289
Mcqueen Ball Associates Inc 2016-09-30 8,885 Added More 29 $ 2 $ 786
Washington Trust Bank 2016-09-30 38 Added More 11 $ 0 $ 3
Tarbox Group Inc 2016-09-30 28 Added More 7 $ 0 $ 2
Assetmark Inc 2016-09-30 472 Added More 2 $ 0 $ 41
Jupiter Asset Management Ltd 2016-09-30 16,800 No Change 0 $ 0 $ 1,487
Strs Ohio 2016-09-30 72,500 No Change 0 $ 0 $ 6,418
Proficio Capital Partners Llc 2016-09-30 20 No Change 0 $ 0 $ 1
High Point Bank Trust Co 2016-09-30 233 No Change 0 $ 0 $ 20
Quadrant Capital Group Llc 2016-09-30 265 No Change 0 $ 0 $ 23
Baird Financial Group Inc 2016-09-30 5,066 No Change 0 $ 0 $ 448
Utah Retirement Systems 2016-09-30 14,300 No Change 0 $ 0 $ 1,265
Westport Asset Management Inc 2016-06-30 28,748 No Change 0 $ 0 $ 2,508
Kanaly Trust Co 2016-09-30 192 No Change 0 $ 0 $ 16
Babson Capital Management Llc 2016-09-30 3,600 No Change 0 $ 0 $ 318
Bank Of Nova Scotia 2016-09-30 6,794 No Change 0 $ 0 $ 601
Blackrock Japan Co Ltd 2016-09-30 4,382 No Change 0 $ 0 $ 387
Financial Architects Inc 2016-09-30 529 No Change 0 $ 0 $ 46
Bowen Hanes Co Inc 2016-09-30 215,000 No Change 0 $ 0 $ 19,033
Cambridge Trust Co 2016-09-30 4,000 No Change 0 $ 0 $ 354
Brown Brothers Harriman Co 2016-09-30 217 No Change 0 $ 0 $ 19
Ativo Capital Management Llc 2016-09-30 21,519 No Change 0 $ 0 $ 1,905
Oshaughnessy Asset Management Llc 2016-09-30 12 No Change 0 $ 0 $ 1
Piermont Capital Management Inc 2016-09-30 8,080 No Change 0 $ 0 $ 715
Atwood Palmer Inc 2016-09-30 49,215 No Change 0 $ 0 $ 4,357
Sfmg Llc 2016-06-30 72,000 No Change 0 $ 0 $ 6,283
Advantus Capital Management Inc 2016-09-30 9,553 No Change 0 $ 0 $ 845
Arrow Financial Corp 2016-09-30 120 No Change 0 $ 0 $ 10
Nisa Investment Advisors Llc 2016-09-30 43,440 No Change 0 $ 0 $ 3,845
Parkside Financial Bank Trust 2016-09-30 500 No Change 0 $ 0 $ 44
Financial Counselors Inc 2016-06-30 6,103 No Change 0 $ 0 $ 532
Fortaleza Asset Management Inc 2016-09-30 50 No Change 0 $ 0 $ 4
J Safra Asset Management Corp 2016-09-30 496 No Change 0 $ 0 $ 43
Welch Forbes Llc 2016-09-30 4,900 No Change 0 $ 0 $ 433
Johnson Financial Group Inc 2016-09-30 4,000 No Change 0 $ 0 $ 354
Rocky Mountain Advisers Llc 2016-09-30 39 No Change 0 $ 0 $ 3
Qs Investors Llc 2016-09-30 4 No Change 0 $ 0 $ 0
Retirement Planning Group 2016-09-30 5,213 No Change 0 $ 0 $ 461
Bright Rock Capital Management Llc 2016-09-30 24,500 No Change 0 $ 0 $ 2,168
Wall Street Associates 2016-09-30 3,082 No Change 0 $ 0 $ 272
First Personal Financial Services 2016-09-30 395 No Change 0 $ 0 $ 34
Mosaic Family Wealth Llc 2016-09-30 650 No Change 0 $ 0 $ 57
Ledyard National Bank 2016-09-30 585 No Change 0 $ 0 $ 51
Maple Capital Management Inc 2016-09-30 3,100 No Change 0 $ 0 $ 274
Valley National Advisers Inc 2016-09-30 125 No Change 0 $ 0 $ 11
Gemmer Asset Management Llc 2016-09-30 175 No Change 0 $ 0 $ 15
Davis R M Inc 2016-09-30 2,450 No Change 0 $ 0 $ 216
Trust Co Of Vermont 2016-09-30 3,100 No Change 0 $ 0 $ 274
Royce Associates Lp 2016-09-30 591,700 No Change 0 $ 0 $ 52,383
Westwood Management Corp Il 2016-09-30 3,000 No Change 0 $ 0 $ 265
Leavell Investment Management Inc 2016-09-30 11,146 No Change 0 $ 0 $ 986
State Of Tennessee Treasury Department 2016-09-30 56,800 No Change 0 $ 0 $ 5,028
Massmutual Trust Co Fsb Adv 2016-06-30 322 No Change 0 $ 0 $ 28
New England Private Wealth Advisors Llc 2016-09-30 3,000 No Change 0 $ 0 $ 265
Clarivest Asset Management Llc 2016-09-30 12 No Change 0 $ 0 $ 1
City Holding Co 2016-09-30 62 No Change 0 $ 0 $ 5
Weaver C Barksdale Associates Inc 2016-09-30 76 Sold Some -9 $ -0 $ 6
Hillsdale Investment Management Inc 2016-09-30 40 Sold Some -10 $ -0 $ 3
Dorsey Wright Associates 2016-09-30 5,556 Sold Some -15 $ -1 $ 491
1st Global Advisors Inc 2016-09-30 2,404 Sold Some -18 $ -1 $ 212
Weybosset Research Management Llc 2016-09-30 27,247 Sold Some -21 $ -1 $ 2,412
Bronfman E L Rothschild L P 2016-09-30 185 Sold Some -35 $ -3 $ 16
Liberty Mutual Group Asset Management Inc 2016-09-30 34,188 Sold Some -46 $ -4 $ 3,026
Endurance Wealth Management Inc 2016-09-30 431 Sold Some -50 $ -4 $ 38
Moody Aldrich Partners Llc 2016-09-30 2,440 Sold Some -75 $ -6 $ 216
Alps Advisors Inc 2016-09-30 4,819 Sold Some -76 $ -6 $ 426
Ikos Cif Ltd 2016-09-30 0 Sold All -79 $ -6 $ 0
Advisory Services Network Llc 2016-09-30 140 Sold Some -83 $ -7 $ 12
Eqis Capital Management Inc 2016-09-30 65,985 Sold Some -87 $ -7 $ 5,841
Northwestern Mutual Investment Management Company Llc 2016-09-30 13,524 Sold Some -94 $ -8 $ 1,197
Westfield Capital Management Co Lp 2016-09-30 92,384 Sold Some -100 $ -8 $ 8,178
Seven Bridges Advisors Llc 2016-09-30 3,781 Sold Some -116 $ -10 $ 334
Wfg Advisors Lp 2016-09-30 359 Sold Some -133 $ -11 $ 31
Capstone Asset Management Co 2016-09-30 37,052 Sold Some -170 $ -15 $ 3,280
National Asset Management Inc 2016-09-30 4,229 Sold Some -175 $ -15 $ 374
Next Financial Group Inc 2016-09-30 107 Sold Some -183 $ -16 $ 9
Arizona State Retirement System 2016-09-30 34,902 Sold Some -200 $ -17 $ 3,089
Mai Capital Management 2016-09-30 10,341 Sold Some -200 $ -17 $ 915
Bb T Corp 2016-09-30 4,922 Sold Some -212 $ -18 $ 435
Simplex Trading Llc 2016-09-30 0 Sold All -271 $ -23 $ 0
Ftb Advisors Inc 2016-09-30 40 Sold Some -286 $ -25 $ 3
Umb Bank N A Mo 2016-09-30 17,507 Sold Some -314 $ -27 $ 1,549
Kalos Management Inc 2016-09-30 7,754 Sold Some -390 $ -34 $ 686
Blackrock Inc 2016-09-30 58,830 Sold Some -408 $ -36 $ 5,208
Dividend Assets Capital Llc 2016-09-30 457,774 Sold Some -436 $ -38 $ 40,526
Commerce Bank 2016-09-30 31,954 Sold Some -440 $ -38 $ 2,828
National Planning Corp 2016-09-30 3,052 Sold Some -445 $ -39 $ 270
Commonwealth Equity Services Inc 2016-09-30 6,375 Sold Some -450 $ -39 $ 564
Sigma Planning Corp 2016-09-30 2,615 Sold Some -486 $ -43 $ 231
Texas Permanent School Fund 2016-09-30 59,828 Sold Some -489 $ -43 $ 5,296
Proshare Advisors Llc 2016-09-30 6,442 Sold Some -489 $ -43 $ 570
Montage Investments Llc 2016-09-30 19,260 Sold Some -490 $ -43 $ 1,705
Great Lakes Advisors Llc 2016-09-30 7,063 Sold Some -514 $ -45 $ 625
Ibm Retirement Fund 2016-09-30 7,432 Sold Some -523 $ -46 $ 657
Twin Capital Management Inc 2016-09-30 19,510 Sold Some -540 $ -47 $ 1,727
Retirement Systems Of Alabama 2016-09-30 101,204 Sold Some -554 $ -49 $ 8,959
M T Bank Corp 2016-09-30 6,841 Sold Some -585 $ -51 $ 605
First Manhattan Co 2016-09-30 1,088 Sold Some -660 $ -58 $ 96
Checchi Capital Advisers Llc 2016-09-30 0 Sold All -663 $ -58 $ 0
First Merchants Corp 2016-09-30 38,946 Sold Some -739 $ -65 $ 3,447
Cue Financial Group Inc 2016-09-30 8,650 Sold Some -750 $ -66 $ 765
Wesbanco Bank Inc 2016-09-30 2,460 Sold Some -800 $ -70 $ 217
Ronna Sue Cohen 2016-09-30 20,850 Sold Some -832 $ -73 $ 1,845
Segall Bryant Hamill Llc 2016-09-30 21,875 Sold Some -901 $ -79 $ 1,936
Fdx Advisors Inc 2016-09-30 5,884 Sold Some -949 $ -84 $ 520
Kames Capital Plc 2016-09-30 56,045 Sold Some -958 $ -84 $ 4,961
Nationwide Fund Advisors 2016-09-30 132,833 Sold Some -980 $ -86 $ 11,759
First Mercantile Trust Co 2016-09-30 2,744 Sold Some -1,065 $ -94 $ 242
First Republic Investment Management Inc 2016-09-30 28,044 Sold Some -1,138 $ -100 $ 2,482
Hsbc Holdings Plc 2016-09-30 6,906 Sold Some -1,151 $ -101 $ 611
Advisors Asset Management Inc 2016-09-30 16,447 Sold Some -1,210 $ -107 $ 1,456
Hollencrest Securities Llc 2016-09-30 3,434 Sold Some -1,328 $ -117 $ 304
Central Trust Co 2016-09-30 11,613 Sold Some -1,499 $ -132 $ 1,028
Shell Asset Management Co 2016-09-30 10,224 Sold Some -1,517 $ -134 $ 905
Dupont Capital Management Corp 2016-09-30 37,621 Sold Some -1,600 $ -141 $ 3,330
Jacobson Schmitt Advisors Llc 2016-09-30 41,572 Sold Some -1,648 $ -145 $ 3,680
Ngam Advisors L P 2016-09-30 22,655 Sold Some -1,982 $ -175 $ 2,005
Walleye Trading Llc 2016-09-30 419 Sold Some -2,281 $ -201 $ 37
Legacy Private Trust Co 2016-09-30 18,110 Sold Some -2,310 $ -204 $ 1,603
Turner Investments Llc 2016-09-30 0 Sold All -2,500 $ -221 $ 0
Fox Run Management L L C 2016-09-30 0 Sold All -2,500 $ -221 $ 0
Keybank National Association Oh 2016-09-30 9,505 Sold Some -2,557 $ -226 $ 841
Tudor Investment Corp Et Al 2016-09-30 0 Sold All -2,600 $ -230 $ 0
Bank Of Hawaii 2016-09-30 0 Sold All -2,650 $ -234 $ 0
Amp Capital Investors Ltd 2016-09-30 7,331 Sold Some -2,800 $ -247 $ 649
Bluemountain Capital Management Llc 2016-09-30 8,512 Sold Some -2,871 $ -254 $ 753
Bridgewater Associates Lp 2016-09-30 0 Sold All -2,925 $ -258 $ 0
Panagora Asset Management Inc 2016-09-30 19,875 Sold Some -2,932 $ -259 $ 1,759
Origin Asset Management Llp 2016-09-30 0 Sold All -3,298 $ -291 $ 0
Dynamic Capital Management Ltd 2016-09-30 15,214 Sold Some -3,350 $ -296 $ 1,346
Sterling Investment Advisors Llc Adv 2016-09-30 0 Sold All -3,375 $ -298 $ 0
Rafferty Asset Management Llc 2016-09-30 5,056 Sold Some -3,426 $ -303 $ 447
Twin Tree Management Lp 2016-09-30 31 Sold Some -3,604 $ -319 $ 2
Shamrock Asset Management Llc 2016-09-30 296 Sold Some -3,666 $ -324 $ 26
New York State Teachers Retirement System 2016-09-30 141,641 Sold Some -3,700 $ -327 $ 12,539
Pacad Investment Ltd 2016-09-30 0 Sold All -3,790 $ -335 $ 0
Reliance Trust Co Of Delaware 2016-09-30 0 Sold All -3,833 $ -339 $ 0
Park Avenue Securities Llc 2016-09-30 0 Sold All -3,887 $ -344 $ 0
Tributary Capital Management Llc 2016-09-30 19,600 Sold Some -4,000 $ -354 $ 1,735
U S Global Investors Inc 2016-09-30 9,327 Sold Some -4,100 $ -362 $ 825
Advisor Group Inc 2016-09-30 4,341 Sold Some -4,604 $ -407 $ 384
Bahl Gaynor Inc 2016-09-30 45,480 Sold Some -4,751 $ -420 $ 4,026
Diam Co Ltd 2016-09-30 49,948 Sold Some -4,906 $ -434 $ 4,421
Regions Financial Corp 2016-09-30 29,599 Sold Some -4,941 $ -437 $ 2,620
Stifel Financial Corp 2016-09-30 41,226 Sold Some -5,040 $ -446 $ 3,649
Swiss National Bank 2016-09-30 127,900 Sold Some -5,600 $ -495 $ 11,322
Envestnet Asset Management Inc 2016-09-30 113,404 Sold Some -5,879 $ -520 $ 10,039
Forward Management Llc 2016-09-30 0 Sold All -5,914 $ -523 $ 0
Blackrock Investment Management Llc 2016-09-30 236,840 Sold Some -6,555 $ -580 $ 20,967
Seven Eight Capital Llc 2016-09-30 0 Sold All -6,900 $ -610 $ 0
Shelton Capital Management 2016-09-30 0 Sold All -7,834 $ -693 $ 0
Smith Graham Co Investment Advisors Lp 2016-09-30 57,995 Sold Some -8,360 $ -740 $ 5,134
Teachers Advisors Inc 2016-09-30 128,372 Sold Some -8,481 $ -750 $ 11,364
Squarepoint Ops Llc 2016-09-30 0 Sold All -8,599 $ -761 $ 0
Peak6 Investments L P 2016-09-30 0 Sold All -9,000 $ -796 $ 0
Sei Investments Co 2016-09-30 152,251 Sold Some -9,735 $ -861 $ 13,478
Capital Fund Management S A 2016-09-30 0 Sold All -10,097 $ -893 $ 0
Zurcher Kantonalbank Zurich Cantonalbank 2016-09-30 2,489 Sold Some -10,964 $ -970 $ 220
Dekabank Deutsche Girozentrale 2016-09-30 60,700 Sold Some -11,200 $ -991 $ 5,373
Atlantic Trust Group Llc 2016-09-30 967,084 Sold Some -11,480 $ -1,016 $ 85,615
Chicago Equity Partners Llc 2016-09-30 25,105 Sold Some -12,420 $ -1,099 $ 2,222
Clinton Group Inc 2016-09-30 0 Sold All -12,975 $ -1,148 $ 0
Sevenbridge Financial Group Llc 2016-09-30 1,603 Sold Some -13,572 $ -1,201 $ 141
Dimensional Fund Advisors Lp 2016-09-30 401,536 Sold Some -13,770 $ -1,219 $ 35,547
Guggenheim Capital Llc 2016-09-30 93,016 Sold Some -13,936 $ -1,233 $ 8,234
Atlanta Capital Management Co L L C 2016-09-30 2,547,694 Sold Some -14,969 $ -1,325 $ 225,547
Quadrature Capital Ltd 2016-09-30 0 Sold All -15,460 $ -1,368 $ 0
Palo Capital Inc 2016-09-30 19,053 Sold Some -16,523 $ -1,462 $ 1,686
Sg Americas Securities Llc 2016-09-30 8,126 Sold Some -17,694 $ -1,566 $ 719
Wbi Investments Inc 2016-09-30 129,198 Sold Some -19,285 $ -1,707 $ 11,437
Trimtabs Asset Management Llc 2016-09-30 284 Sold Some -19,766 $ -1,749 $ 25
State Treasurer State Of Michigan 2016-09-30 31,650 Sold Some -20,100 $ -1,779 $ 2,801
Denali Advisors Llc 2016-09-30 7,200 Sold Some -22,900 $ -2,027 $ 637
New York State Common Retirement Fund 2016-09-30 319,580 Sold Some -23,300 $ -2,062 $ 28,292
Perkins Investment Management Llc 2016-09-30 489,866 Sold Some -23,630 $ -2,091 $ 43,367
Ironbridge Capital Management Lp 2016-09-30 302,865 Sold Some -26,194 $ -2,318 $ 26,812
Broadview Advisors Llc 2016-09-30 0 Sold All -28,375 $ -2,512 $ 0
Teacher Retirement System Of Texas 2016-09-30 71,269 Sold Some -29,216 $ -2,586 $ 6,309
Martingale Asset Management L P 2016-09-30 111,515 Sold Some -29,680 $ -2,627 $ 9,872
Nuveen Asset Management Llc 2016-09-30 147,859 Sold Some -30,959 $ -2,740 $ 13,089
Emerald Acquisition Ltd 2016-09-30 215,707 Sold Some -33,085 $ -2,929 $ 19,096
Cibc Asset Management Inc 2016-09-30 96,841 Sold Some -33,890 $ -3,000 $ 8,573
Lord Abbett Co Llc 2016-09-30 101,512 Sold Some -34,700 $ -3,071 $ 8,986
Timessquare Capital Management Llc 2016-09-30 871,650 Sold Some -41,350 $ -3,660 $ 77,167
Parametric Portfolio Associates Llc 2016-09-30 173,623 Sold Some -46,535 $ -4,119 $ 15,370
Capital Guardian Trust Co 2016-09-30 1,301,711 Sold Some -53,599 $ -4,745 $ 115,240
Bridgeway Capital Management Inc 2016-09-30 0 Sold All -53,700 $ -4,754 $ 0
Teachers Retirement System Of The State Of Kentucky 2016-09-30 20,400 Sold Some -57,463 $ -5,087 $ 1,806
Scout Investments Inc 2016-09-30 134,793 Sold Some -62,329 $ -5,517 $ 11,933
Grantham Mayo Van Otterloo Co Llc 2016-09-30 10,110 Sold Some -62,431 $ -5,527 $ 895
Rr Partners Lp 2016-09-30 565,122 Sold Some -97,200 $ -8,605 $ 50,030
Frontier Capital Management Co Llc 2016-09-30 835,184 Sold Some -198,725 $ -17,593 $ 73,938